sensor_id;sensor_type;location;lat;lon;timestamp;P1;durP1;ratioP1;P2;durP2;ratioP2
25111;SDS011;13092;51.996;4.458;2022-11-15T00:01:33;93.70;;;61.65;;
25111;SDS011;13092;51.996;4.458;2022-11-15T00:04:06;119.82;;;62.33;;
25111;SDS011;13092;51.996;4.458;2022-11-15T00:06:34;84.95;;;58.47;;
25111;SDS011;13092;51.996;4.458;2022-11-15T00:09:03;98.18;;;58.60;;
25111;SDS011;13092;51.996;4.458;2022-11-15T00:11:31;94.40;;;60.50;;
25111;SDS011;13092;51.996;4.458;2022-11-15T00:14:00;114.30;;;61.15;;
25111;SDS011;13092;51.996;4.458;2022-11-15T00:16:29;84.72;;;55.20;;
25111;SDS011;13092;51.996;4.458;2022-11-15T00:18:57;92.28;;;55.58;;
25111;SDS011;13092;51.996;4.458;2022-11-15T00:21:28;105.53;;;55.58;;
25111;SDS011;13092;51.996;4.458;2022-11-15T00:23:56;110.85;;;57.97;;
25111;SDS011;13092;51.996;4.458;2022-11-15T00:26:25;90.35;;;55.83;;
25111;SDS011;13092;51.996;4.458;2022-11-15T00:28:53;94.53;;;54.30;;
25111;SDS011;13092;51.996;4.458;2022-11-15T00:31:21;130.80;;;62.00;;
25111;SDS011;13092;51.996;4.458;2022-11-15T00:33:49;120.75;;;59.03;;
25111;SDS011;13092;51.996;4.458;2022-11-15T00:36:17;92.40;;;55.00;;
25111;SDS011;13092;51.996;4.458;2022-11-15T00:38:48;112.40;;;56.15;;
25111;SDS011;13092;51.996;4.458;2022-11-15T00:41:16;101.07;;;55.83;;
25111;SDS011;13092;51.996;4.458;2022-11-15T00:43:45;84.80;;;54.53;;
25111;SDS011;13092;51.996;4.458;2022-11-15T00:46:13;105.32;;;57.00;;
25111;SDS011;13092;51.996;4.458;2022-11-15T00:48:41;104.18;;;55.97;;
25111;SDS011;13092;51.996;4.458;2022-11-15T00:51:09;101.88;;;57.58;;
25111;SDS011;13092;51.996;4.458;2022-11-15T00:53:39;127.60;;;60.00;;
25111;SDS011;13092;51.996;4.458;2022-11-15T00:56:07;110.18;;;57.05;;
25111;SDS011;13092;51.996;4.458;2022-11-15T00:58:35;121.35;;;60.97;;
25111;SDS011;13092;51.996;4.458;2022-11-15T01:01:06;119.18;;;58.65;;
25111;SDS011;13092;51.996;4.458;2022-11-15T01:03:36;117.00;;;56.47;;
25111;SDS011;13092;51.996;4.458;2022-11-15T01:06:06;104.68;;;56.47;;
25111;SDS011;13092;51.996;4.458;2022-11-15T01:08:34;123.78;;;60.13;;
25111;SDS011;13092;51.996;4.458;2022-11-15T01:11:03;119.00;;;59.47;;
25111;SDS011;13092;51.996;4.458;2022-11-15T01:13:33;125.57;;;60.95;;
25111;SDS011;13092;51.996;4.458;2022-11-15T01:16:06;104.57;;;57.13;;
25111;SDS011;13092;51.996;4.458;2022-11-15T01:18:36;98.10;;;55.30;;
25111;SDS011;13092;51.996;4.458;2022-11-15T01:21:04;112.75;;;59.42;;
25111;SDS011;13092;51.996;4.458;2022-11-15T01:23:34;108.40;;;59.67;;
25111;SDS011;13092;51.996;4.458;2022-11-15T01:26:03;118.60;;;59.33;;
25111;SDS011;13092;51.996;4.458;2022-11-15T01:28:33;122.00;;;60.55;;
25111;SDS011;13092;51.996;4.458;2022-11-15T01:31:02;114.07;;;58.05;;
25111;SDS011;13092;51.996;4.458;2022-11-15T01:33:35;122.15;;;58.95;;
25111;SDS011;13092;51.996;4.458;2022-11-15T01:36:03;122.20;;;60.35;;
25111;SDS011;13092;51.996;4.458;2022-11-15T01:38:32;104.30;;;58.55;;
25111;SDS011;13092;51.996;4.458;2022-11-15T01:41:00;130.07;;;62.33;;
25111;SDS011;13092;51.996;4.458;2022-11-15T01:43:29;112.05;;;59.80;;
25111;SDS011;13092;51.996;4.458;2022-11-15T01:45:58;125.20;;;61.30;;
25111;SDS011;13092;51.996;4.458;2022-11-15T01:48:31;118.43;;;60.28;;
25111;SDS011;13092;51.996;4.458;2022-11-15T01:51:04;113.57;;;59.58;;
25111;SDS011;13092;51.996;4.458;2022-11-15T01:53:34;110.97;;;59.85;;
25111;SDS011;13092;51.996;4.458;2022-11-15T01:56:05;114.82;;;60.38;;
25111;SDS011;13092;51.996;4.458;2022-11-15T01:58:36;108.68;;;58.00;;
25111;SDS011;13092;51.996;4.458;2022-11-15T02:01:06;103.13;;;58.20;;
25111;SDS011;13092;51.996;4.458;2022-11-15T02:03:38;103.38;;;60.00;;
25111;SDS011;13092;51.996;4.458;2022-11-15T02:06:12;110.53;;;59.28;;
25111;SDS011;13092;51.996;4.458;2022-11-15T02:08:41;120.32;;;61.63;;
25111;SDS011;13092;51.996;4.458;2022-11-15T02:11:10;101.72;;;59.42;;
25111;SDS011;13092;51.996;4.458;2022-11-15T02:13:38;118.43;;;61.83;;
25111;SDS011;13092;51.996;4.458;2022-11-15T02:16:09;100.05;;;58.08;;
25111;SDS011;13092;51.996;4.458;2022-11-15T02:18:46;99.15;;;58.03;;
25111;SDS011;13092;51.996;4.458;2022-11-15T02:21:22;105.32;;;57.03;;
25111;SDS011;13092;51.996;4.458;2022-11-15T02:29:59;105.03;;;55.22;;
25111;SDS011;13092;51.996;4.458;2022-11-15T02:32:36;108.20;;;58.22;;
25111;SDS011;13092;51.996;4.458;2022-11-15T02:35:11;93.88;;;57.70;;
25111;SDS011;13092;51.996;4.458;2022-11-15T02:37:47;98.40;;;55.53;;
25111;SDS011;13092;51.996;4.458;2022-11-15T02:40:26;99.15;;;55.88;;
25111;SDS011;13092;51.996;4.458;2022-11-15T02:43:08;113.80;;;59.35;;
25111;SDS011;13092;51.996;4.458;2022-11-15T02:45:58;94.88;;;55.58;;
25111;SDS011;13092;51.996;4.458;2022-11-15T02:48:32;108.75;;;58.03;;
25111;SDS011;13092;51.996;4.458;2022-11-15T02:51:01;90.57;;;53.90;;
25111;SDS011;13092;51.996;4.458;2022-11-15T02:53:30;92.35;;;55.42;;
25111;SDS011;13092;51.996;4.458;2022-11-15T02:55:59;101.85;;;56.60;;
25111;SDS011;13092;51.996;4.458;2022-11-15T03:01:28;86.78;;;52.03;;
25111;SDS011;13092;51.996;4.458;2022-11-15T03:04:07;79.63;;;51.88;;
25111;SDS011;13092;51.996;4.458;2022-11-15T03:06:48;83.65;;;52.72;;
25111;SDS011;13092;51.996;4.458;2022-11-15T03:09:24;82.55;;;51.67;;
25111;SDS011;13092;51.996;4.458;2022-11-15T03:12:03;76.50;;;51.00;;
25111;SDS011;13092;51.996;4.458;2022-11-15T03:14:38;77.03;;;50.95;;
25111;SDS011;13092;51.996;4.458;2022-11-15T03:17:15;71.72;;;49.90;;
25111;SDS011;13092;51.996;4.458;2022-11-15T03:19:49;67.45;;;49.42;;
25111;SDS011;13092;51.996;4.458;2022-11-15T03:22:23;67.18;;;47.67;;
25111;SDS011;13092;51.996;4.458;2022-11-15T03:24:57;66.88;;;47.90;;
25111;SDS011;13092;51.996;4.458;2022-11-15T03:27:31;63.85;;;48.47;;
25111;SDS011;13092;51.996;4.458;2022-11-15T03:30:03;62.58;;;46.83;;
25111;SDS011;13092;51.996;4.458;2022-11-15T03:32:34;63.30;;;46.78;;
25111;SDS011;13092;51.996;4.458;2022-11-15T03:35:08;63.38;;;46.63;;
25111;SDS011;13092;51.996;4.458;2022-11-15T03:37:40;53.53;;;44.15;;
25111;SDS011;13092;51.996;4.458;2022-11-15T03:40:13;54.95;;;43.65;;
25111;SDS011;13092;51.996;4.458;2022-11-15T03:42:43;53.15;;;44.40;;
25111;SDS011;13092;51.996;4.458;2022-11-15T03:45:16;55.17;;;44.33;;
25111;SDS011;13092;51.996;4.458;2022-11-15T03:47:51;50.30;;;42.90;;
25111;SDS011;13092;51.996;4.458;2022-11-15T03:50:27;52.42;;;41.60;;
25111;SDS011;13092;51.996;4.458;2022-11-15T03:52:56;46.30;;;41.13;;
25111;SDS011;13092;51.996;4.458;2022-11-15T03:55:26;46.92;;;39.20;;
25111;SDS011;13092;51.996;4.458;2022-11-15T03:57:56;42.72;;;37.80;;
25111;SDS011;13092;51.996;4.458;2022-11-15T04:00:29;44.47;;;38.10;;
25111;SDS011;13092;51.996;4.458;2022-11-15T04:02:57;40.20;;;36.20;;
25111;SDS011;13092;51.996;4.458;2022-11-15T04:05:26;39.95;;;35.88;;
25111;SDS011;13092;51.996;4.458;2022-11-15T04:07:54;38.50;;;34.55;;
25111;SDS011;13092;51.996;4.458;2022-11-15T04:10:23;38.15;;;34.55;;
25111;SDS011;13092;51.996;4.458;2022-11-15T04:12:51;37.92;;;34.08;;
25111;SDS011;13092;51.996;4.458;2022-11-15T04:15:20;36.50;;;32.67;;
25111;SDS011;13092;51.996;4.458;2022-11-15T04:17:49;37.65;;;34.13;;
25111;SDS011;13092;51.996;4.458;2022-11-15T04:20:19;38.00;;;33.95;;
25111;SDS011;13092;51.996;4.458;2022-11-15T04:23:09;36.85;;;33.05;;
25111;SDS011;13092;51.996;4.458;2022-11-15T04:25:58;37.03;;;33.33;;
25111;SDS011;13092;51.996;4.458;2022-11-15T04:28:28;37.28;;;33.63;;
25111;SDS011;13092;51.996;4.458;2022-11-15T04:30:56;37.15;;;33.15;;
25111;SDS011;13092;51.996;4.458;2022-11-15T04:33:24;37.58;;;33.65;;
25111;SDS011;13092;51.996;4.458;2022-11-15T04:35:52;38.33;;;33.10;;
25111;SDS011;13092;51.996;4.458;2022-11-15T04:38:39;37.15;;;33.40;;
25111;SDS011;13092;51.996;4.458;2022-11-15T04:41:07;36.67;;;32.83;;
25111;SDS011;13092;51.996;4.458;2022-11-15T04:43:35;37.80;;;33.95;;
25111;SDS011;13092;51.996;4.458;2022-11-15T04:46:03;37.55;;;33.85;;
25111;SDS011;13092;51.996;4.458;2022-11-15T04:48:31;37.88;;;33.92;;
25111;SDS011;13092;51.996;4.458;2022-11-15T04:50:59;37.60;;;34.00;;
25111;SDS011;13092;51.996;4.458;2022-11-15T04:53:27;37.97;;;34.20;;
25111;SDS011;13092;51.996;4.458;2022-11-15T04:55:57;38.00;;;33.95;;
25111;SDS011;13092;51.996;4.458;2022-11-15T04:58:25;38.67;;;34.95;;
25111;SDS011;13092;51.996;4.458;2022-11-15T05:00:53;38.40;;;34.90;;
25111;SDS011;13092;51.996;4.458;2022-11-15T05:03:22;37.53;;;33.85;;
25111;SDS011;13092;51.996;4.458;2022-11-15T05:06:04;37.75;;;33.95;;
25111;SDS011;13092;51.996;4.458;2022-11-15T05:08:32;39.17;;;34.97;;
25111;SDS011;13092;51.996;4.458;2022-11-15T05:11:02;38.20;;;34.22;;
25111;SDS011;13092;51.996;4.458;2022-11-15T05:13:30;37.30;;;33.92;;
25111;SDS011;13092;51.996;4.458;2022-11-15T05:15:58;37.22;;;33.63;;
25111;SDS011;13092;51.996;4.458;2022-11-15T05:18:26;35.42;;;32.25;;
25111;SDS011;13092;51.996;4.458;2022-11-15T05:20:54;36.75;;;33.13;;
25111;SDS011;13092;51.996;4.458;2022-11-15T05:23:22;36.97;;;33.25;;
25111;SDS011;13092;51.996;4.458;2022-11-15T05:25:52;36.33;;;32.90;;
25111;SDS011;13092;51.996;4.458;2022-11-15T05:28:21;36.03;;;31.90;;
25111;SDS011;13092;51.996;4.458;2022-11-15T05:30:49;35.30;;;32.05;;
25111;SDS011;13092;51.996;4.458;2022-11-15T05:33:17;35.38;;;31.88;;
25111;SDS011;13092;51.996;4.458;2022-11-15T05:35:51;36.10;;;32.50;;
25111;SDS011;13092;51.996;4.458;2022-11-15T05:38:25;36.00;;;32.40;;
25111;SDS011;13092;51.996;4.458;2022-11-15T05:40:53;37.58;;;33.78;;
25111;SDS011;13092;51.996;4.458;2022-11-15T05:43:22;36.70;;;32.65;;
25111;SDS011;13092;51.996;4.458;2022-11-15T05:45:51;36.00;;;32.47;;
25111;SDS011;13092;51.996;4.458;2022-11-15T05:48:19;36.55;;;32.80;;
25111;SDS011;13092;51.996;4.458;2022-11-15T05:50:47;35.05;;;31.38;;
25111;SDS011;13092;51.996;4.458;2022-11-15T05:53:16;33.78;;;30.35;;
25111;SDS011;13092;51.996;4.458;2022-11-15T05:55:46;33.15;;;30.17;;
25111;SDS011;13092;51.996;4.458;2022-11-15T05:58:14;32.83;;;29.92;;
25111;SDS011;13092;51.996;4.458;2022-11-15T06:00:44;33.63;;;30.52;;
25111;SDS011;13092;51.996;4.458;2022-11-15T06:03:13;32.85;;;29.63;;
25111;SDS011;13092;51.996;4.458;2022-11-15T06:05:41;33.83;;;30.58;;
25111;SDS011;13092;51.996;4.458;2022-11-15T06:08:09;33.40;;;30.20;;
25111;SDS011;13092;51.996;4.458;2022-11-15T06:10:37;32.30;;;29.20;;
25111;SDS011;13092;51.996;4.458;2022-11-15T06:13:05;32.92;;;29.88;;
25111;SDS011;13092;51.996;4.458;2022-11-15T06:15:33;32.53;;;29.23;;
25111;SDS011;13092;51.996;4.458;2022-11-15T06:18:03;31.23;;;28.48;;
25111;SDS011;13092;51.996;4.458;2022-11-15T06:20:31;31.70;;;28.73;;
25111;SDS011;13092;51.996;4.458;2022-11-15T06:22:59;31.77;;;28.98;;
25111;SDS011;13092;51.996;4.458;2022-11-15T06:25:29;30.88;;;28.20;;
25111;SDS011;13092;51.996;4.458;2022-11-15T06:27:58;31.65;;;28.85;;
25111;SDS011;13092;51.996;4.458;2022-11-15T06:30:27;31.17;;;28.50;;
25111;SDS011;13092;51.996;4.458;2022-11-15T06:32:58;30.30;;;27.58;;
25111;SDS011;13092;51.996;4.458;2022-11-15T06:35:30;32.08;;;29.05;;
25111;SDS011;13092;51.996;4.458;2022-11-15T06:38:04;31.98;;;28.55;;
25111;SDS011;13092;51.996;4.458;2022-11-15T06:40:34;29.90;;;27.23;;
25111;SDS011;13092;51.996;4.458;2022-11-15T06:43:03;32.53;;;29.65;;
25111;SDS011;13092;51.996;4.458;2022-11-15T06:45:32;32.17;;;29.30;;
25111;SDS011;13092;51.996;4.458;2022-11-15T06:48:00;32.28;;;29.40;;
25111;SDS011;13092;51.996;4.458;2022-11-15T06:50:33;31.30;;;28.58;;
25111;SDS011;13092;51.996;4.458;2022-11-15T06:53:01;32.00;;;29.08;;
25111;SDS011;13092;51.996;4.458;2022-11-15T06:55:30;31.85;;;28.90;;
25111;SDS011;13092;51.996;4.458;2022-11-15T06:57:58;32.55;;;29.60;;
25111;SDS011;13092;51.996;4.458;2022-11-15T07:00:26;30.95;;;28.45;;
25111;SDS011;13092;51.996;4.458;2022-11-15T07:02:55;33.47;;;30.38;;
25111;SDS011;13092;51.996;4.458;2022-11-15T07:05:29;33.25;;;30.45;;
25111;SDS011;13092;51.996;4.458;2022-11-15T07:07:59;33.13;;;30.30;;
25111;SDS011;13092;51.996;4.458;2022-11-15T07:10:30;32.53;;;29.83;;
25111;SDS011;13092;51.996;4.458;2022-11-15T07:12:58;33.53;;;30.52;;
25111;SDS011;13092;51.996;4.458;2022-11-15T07:15:28;32.47;;;29.40;;
25111;SDS011;13092;51.996;4.458;2022-11-15T07:17:59;32.35;;;29.13;;
25111;SDS011;13092;51.996;4.458;2022-11-15T07:20:28;32.50;;;29.63;;
25111;SDS011;13092;51.996;4.458;2022-11-15T07:23:00;31.42;;;28.63;;
25111;SDS011;13092;51.996;4.458;2022-11-15T07:25:32;32.30;;;29.20;;
25111;SDS011;13092;51.996;4.458;2022-11-15T07:28:01;30.65;;;27.88;;
25111;SDS011;13092;51.996;4.458;2022-11-15T07:30:30;31.23;;;28.25;;
25111;SDS011;13092;51.996;4.458;2022-11-15T07:32:59;31.35;;;28.52;;
25111;SDS011;13092;51.996;4.458;2022-11-15T07:35:34;29.10;;;26.42;;
25111;SDS011;13092;51.996;4.458;2022-11-15T07:38:06;28.45;;;26.20;;
25111;SDS011;13092;51.996;4.458;2022-11-15T07:40:35;28.20;;;26.02;;
25111;SDS011;13092;51.996;4.458;2022-11-15T07:43:04;28.40;;;25.92;;
25111;SDS011;13092;51.996;4.458;2022-11-15T07:45:39;27.95;;;25.77;;
25111;SDS011;13092;51.996;4.458;2022-11-15T07:48:09;29.27;;;27.00;;
25111;SDS011;13092;51.996;4.458;2022-11-15T07:50:40;28.70;;;26.48;;
25111;SDS011;13092;51.996;4.458;2022-11-15T07:53:11;28.55;;;26.30;;
25111;SDS011;13092;51.996;4.458;2022-11-15T07:55:40;28.52;;;26.30;;
25111;SDS011;13092;51.996;4.458;2022-11-15T07:58:10;28.65;;;26.17;;
25111;SDS011;13092;51.996;4.458;2022-11-15T08:00:39;30.23;;;27.92;;
25111;SDS011;13092;51.996;4.458;2022-11-15T08:03:08;29.05;;;26.73;;
25111;SDS011;13092;51.996;4.458;2022-11-15T08:05:38;28.30;;;26.30;;
25111;SDS011;13092;51.996;4.458;2022-11-15T08:08:08;28.77;;;26.48;;
25111;SDS011;13092;51.996;4.458;2022-11-15T08:10:38;29.50;;;26.73;;
25111;SDS011;13092;51.996;4.458;2022-11-15T08:13:08;29.23;;;27.00;;
25111;SDS011;13092;51.996;4.458;2022-11-15T08:15:37;28.60;;;26.40;;
25111;SDS011;13092;51.996;4.458;2022-11-15T08:18:06;29.20;;;27.02;;
25111;SDS011;13092;51.996;4.458;2022-11-15T08:20:39;28.73;;;26.63;;
25111;SDS011;13092;51.996;4.458;2022-11-15T08:23:10;28.35;;;26.35;;
25111;SDS011;13092;51.996;4.458;2022-11-15T08:25:42;29.65;;;27.45;;
25111;SDS011;13092;51.996;4.458;2022-11-15T08:28:10;29.00;;;26.73;;
25111;SDS011;13092;51.996;4.458;2022-11-15T08:30:39;29.42;;;27.02;;
25111;SDS011;13092;51.996;4.458;2022-11-15T08:33:11;29.98;;;27.33;;
25111;SDS011;13092;51.996;4.458;2022-11-15T08:35:41;30.42;;;28.00;;
25111;SDS011;13092;51.996;4.458;2022-11-15T08:38:11;29.52;;;27.10;;
25111;SDS011;13092;51.996;4.458;2022-11-15T08:40:39;29.80;;;27.55;;
25111;SDS011;13092;51.996;4.458;2022-11-15T08:43:12;28.73;;;26.55;;
25111;SDS011;13092;51.996;4.458;2022-11-15T08:45:43;29.77;;;27.48;;
25111;SDS011;13092;51.996;4.458;2022-11-15T08:48:12;29.25;;;27.17;;
25111;SDS011;13092;51.996;4.458;2022-11-15T08:50:44;30.45;;;28.05;;
25111;SDS011;13092;51.996;4.458;2022-11-15T08:53:15;30.40;;;28.00;;
25111;SDS011;13092;51.996;4.458;2022-11-15T08:55:45;31.10;;;28.60;;
25111;SDS011;13092;51.996;4.458;2022-11-15T08:58:13;29.70;;;27.60;;
25111;SDS011;13092;51.996;4.458;2022-11-15T09:00:41;29.85;;;27.52;;
25111;SDS011;13092;51.996;4.458;2022-11-15T09:03:10;28.75;;;26.55;;
25111;SDS011;13092;51.996;4.458;2022-11-15T09:05:38;29.83;;;27.50;;
25111;SDS011;13092;51.996;4.458;2022-11-15T09:08:06;29.02;;;26.88;;
25111;SDS011;13092;51.996;4.458;2022-11-15T09:10:56;28.85;;;26.70;;
25111;SDS011;13092;51.996;4.458;2022-11-15T09:13:25;28.42;;;26.23;;
25111;SDS011;13092;51.996;4.458;2022-11-15T09:15:56;28.92;;;26.73;;
25111;SDS011;13092;51.996;4.458;2022-11-15T09:18:25;29.98;;;27.70;;
25111;SDS011;13092;51.996;4.458;2022-11-15T09:20:54;30.58;;;28.13;;
25111;SDS011;13092;51.996;4.458;2022-11-15T09:23:24;31.55;;;28.70;;
25111;SDS011;13092;51.996;4.458;2022-11-15T09:34:26;28.65;;;26.45;;
25111;SDS011;13092;51.996;4.458;2022-11-15T09:36:55;29.35;;;27.02;;
25111;SDS011;13092;51.996;4.458;2022-11-15T09:39:23;29.00;;;26.77;;
25111;SDS011;13092;51.996;4.458;2022-11-15T09:41:55;28.45;;;26.35;;
25111;SDS011;13092;51.996;4.458;2022-11-15T09:44:38;27.73;;;25.55;;
25111;SDS011;13092;51.996;4.458;2022-11-15T09:47:31;27.58;;;25.55;;
25111;SDS011;13092;51.996;4.458;2022-11-15T09:50:27;28.92;;;26.48;;
25111;SDS011;13092;51.996;4.458;2022-11-15T09:53:00;28.50;;;26.33;;
25111;SDS011;13092;51.996;4.458;2022-11-15T09:55:32;29.45;;;27.15;;
25111;SDS011;13092;51.996;4.458;2022-11-15T09:58:16;29.08;;;26.77;;
25111;SDS011;13092;51.996;4.458;2022-11-15T10:00:50;27.05;;;25.02;;
25111;SDS011;13092;51.996;4.458;2022-11-15T10:03:25;26.02;;;24.25;;
25111;SDS011;13092;51.996;4.458;2022-11-15T10:05:57;27.42;;;25.38;;
25111;SDS011;13092;51.996;4.458;2022-11-15T10:11:35;24.95;;;23.33;;
25111;SDS011;13092;51.996;4.458;2022-11-15T10:27:33;24.42;;;22.42;;
25111;SDS011;13092;51.996;4.458;2022-11-15T13:26:19;22.45;;;20.85;;
25111;SDS011;13092;51.996;4.458;2022-11-15T13:28:49;22.80;;;21.17;;
25111;SDS011;13092;51.996;4.458;2022-11-15T13:31:23;22.67;;;20.83;;
25111;SDS011;13092;51.996;4.458;2022-11-15T13:33:54;20.20;;;18.55;;
25111;SDS011;13092;51.996;4.458;2022-11-15T13:36:25;18.35;;;16.95;;
25111;SDS011;13092;51.996;4.458;2022-11-15T13:38:59;18.92;;;17.33;;
25111;SDS011;13092;51.996;4.458;2022-11-15T13:41:29;16.85;;;15.65;;
25111;SDS011;13092;51.996;4.458;2022-11-15T13:43:59;16.88;;;15.68;;
25111;SDS011;13092;51.996;4.458;2022-11-15T13:46:29;16.10;;;14.77;;
25111;SDS011;13092;51.996;4.458;2022-11-15T13:49:00;14.95;;;13.85;;
25111;SDS011;13092;51.996;4.458;2022-11-15T13:51:31;15.77;;;14.38;;
25111;SDS011;13092;51.996;4.458;2022-11-15T13:54:06;15.18;;;13.98;;
25111;SDS011;13092;51.996;4.458;2022-11-15T13:56:44;15.32;;;13.90;;
25111;SDS011;13092;51.996;4.458;2022-11-15T13:59:17;14.73;;;13.43;;
25111;SDS011;13092;51.996;4.458;2022-11-15T14:01:49;14.80;;;13.70;;
25111;SDS011;13092;51.996;4.458;2022-11-15T14:04:19;14.60;;;12.82;;
25111;SDS011;13092;51.996;4.458;2022-11-15T14:06:50;14.07;;;12.90;;
25111;SDS011;13092;51.996;4.458;2022-11-15T14:09:30;15.25;;;13.95;;
25111;SDS011;13092;51.996;4.458;2022-11-15T14:12:02;16.90;;;15.30;;
25111;SDS011;13092;51.996;4.458;2022-11-15T14:14:49;17.58;;;15.95;;
25111;SDS011;13092;51.996;4.458;2022-11-15T14:17:19;16.25;;;15.15;;
25111;SDS011;13092;51.996;4.458;2022-11-15T14:19:59;15.82;;;14.73;;
25111;SDS011;13092;51.996;4.458;2022-11-15T14:22:28;16.33;;;15.23;;
25111;SDS011;13092;51.996;4.458;2022-11-15T14:25:07;17.80;;;16.42;;
25111;SDS011;13092;51.996;4.458;2022-11-15T14:27:44;17.45;;;16.15;;
25111;SDS011;13092;51.996;4.458;2022-11-15T14:30:32;18.08;;;16.77;;
25111;SDS011;13092;51.996;4.458;2022-11-15T14:33:00;18.45;;;16.92;;
25111;SDS011;13092;51.996;4.458;2022-11-15T14:35:37;16.65;;;15.45;;
25111;SDS011;13092;51.996;4.458;2022-11-15T14:38:07;16.83;;;15.63;;
25111;SDS011;13092;51.996;4.458;2022-11-15T14:40:36;16.83;;;15.65;;
25111;SDS011;13092;51.996;4.458;2022-11-15T14:43:07;16.85;;;15.48;;
25111;SDS011;13092;51.996;4.458;2022-11-15T14:45:43;16.38;;;14.88;;
25111;SDS011;13092;51.996;4.458;2022-11-15T14:48:11;15.35;;;14.13;;
25111;SDS011;13092;51.996;4.458;2022-11-15T14:50:40;15.57;;;14.27;;
25111;SDS011;13092;51.996;4.458;2022-11-15T14:53:11;15.02;;;13.80;;
25111;SDS011;13092;51.996;4.458;2022-11-15T14:55:54;17.42;;;15.93;;
25111;SDS011;13092;51.996;4.458;2022-11-15T14:58:25;18.42;;;16.77;;
25111;SDS011;13092;51.996;4.458;2022-11-15T15:00:54;18.45;;;16.95;;
25111;SDS011;13092;51.996;4.458;2022-11-15T15:03:22;17.58;;;16.27;;
25111;SDS011;13092;51.996;4.458;2022-11-15T15:05:53;18.67;;;17.38;;
25111;SDS011;13092;51.996;4.458;2022-11-15T15:08:31;18.70;;;17.23;;
25111;SDS011;13092;51.996;4.458;2022-11-15T15:11:25;17.30;;;15.90;;
25111;SDS011;13092;51.996;4.458;2022-11-15T15:13:55;18.17;;;16.88;;
25111;SDS011;13092;51.996;4.458;2022-11-15T15:16:27;17.92;;;16.73;;
25111;SDS011;13092;51.996;4.458;2022-11-15T15:18:55;19.15;;;17.75;;
25111;SDS011;13092;51.996;4.458;2022-11-15T15:21:24;19.70;;;18.15;;
25111;SDS011;13092;51.996;4.458;2022-11-15T15:58:38;37.72;;;35.33;;
25111;SDS011;13092;51.996;4.458;2022-11-15T16:13:31;37.45;;;34.70;;
25111;SDS011;13092;51.996;4.458;2022-11-15T16:16:04;37.38;;;33.95;;
25111;SDS011;13092;51.996;4.458;2022-11-15T16:18:47;36.90;;;34.25;;
25111;SDS011;13092;51.996;4.458;2022-11-15T16:21:25;38.53;;;35.70;;
25111;SDS011;13092;51.996;4.458;2022-11-15T16:23:53;37.97;;;34.75;;
25111;SDS011;13092;51.996;4.458;2022-11-15T16:26:23;38.03;;;35.03;;
25111;SDS011;13092;51.996;4.458;2022-11-15T16:28:54;36.95;;;33.97;;
25111;SDS011;13092;51.996;4.458;2022-11-15T16:31:23;35.83;;;33.00;;
25111;SDS011;13092;51.996;4.458;2022-11-15T16:33:54;37.72;;;34.45;;
25111;SDS011;13092;51.996;4.458;2022-11-15T16:36:23;37.72;;;35.05;;
25111;SDS011;13092;51.996;4.458;2022-11-15T16:38:56;38.40;;;35.40;;
25111;SDS011;13092;51.996;4.458;2022-11-15T16:41:26;37.83;;;35.03;;
25111;SDS011;13092;51.996;4.458;2022-11-15T16:43:55;37.25;;;34.38;;
25111;SDS011;13092;51.996;4.458;2022-11-15T16:46:23;35.58;;;32.78;;
25111;SDS011;13092;51.996;4.458;2022-11-15T16:48:52;34.75;;;32.35;;
25111;SDS011;13092;51.996;4.458;2022-11-15T16:51:21;34.42;;;31.92;;
25111;SDS011;13092;51.996;4.458;2022-11-15T16:53:50;35.53;;;32.72;;
25111;SDS011;13092;51.996;4.458;2022-11-15T16:56:21;34.90;;;32.50;;
25111;SDS011;13092;51.996;4.458;2022-11-15T16:58:53;36.17;;;33.58;;
25111;SDS011;13092;51.996;4.458;2022-11-15T17:01:24;35.90;;;33.30;;
25111;SDS011;13092;51.996;4.458;2022-11-15T17:03:54;34.90;;;32.35;;
25111;SDS011;13092;51.996;4.458;2022-11-15T17:06:23;35.70;;;32.80;;
25111;SDS011;13092;51.996;4.458;2022-11-15T17:08:52;33.88;;;31.27;;
25111;SDS011;13092;51.996;4.458;2022-11-15T17:11:21;33.92;;;31.10;;
25111;SDS011;13092;51.996;4.458;2022-11-15T17:13:49;33.25;;;30.85;;
25111;SDS011;13092;51.996;4.458;2022-11-15T17:16:19;33.17;;;30.67;;
25111;SDS011;13092;51.996;4.458;2022-11-15T17:18:49;32.97;;;30.17;;
25111;SDS011;13092;51.996;4.458;2022-11-15T17:21:18;32.75;;;30.15;;
25111;SDS011;13092;51.996;4.458;2022-11-15T17:23:49;32.78;;;30.13;;
25111;SDS011;13092;51.996;4.458;2022-11-15T17:26:18;31.73;;;29.23;;
25111;SDS011;13092;51.996;4.458;2022-11-15T17:28:56;31.95;;;29.35;;
25111;SDS011;13092;51.996;4.458;2022-11-15T17:31:28;31.45;;;28.83;;
25111;SDS011;13092;51.996;4.458;2022-11-15T17:33:59;32.00;;;29.48;;
25111;SDS011;13092;51.996;4.458;2022-11-15T17:36:28;31.35;;;28.65;;
25111;SDS011;13092;51.996;4.458;2022-11-15T17:38:56;31.73;;;29.27;;
25111;SDS011;13092;51.996;4.458;2022-11-15T17:41:25;31.67;;;29.17;;
25111;SDS011;13092;51.996;4.458;2022-11-15T17:43:54;31.15;;;28.63;;
25111;SDS011;13092;51.996;4.458;2022-11-15T17:46:26;30.10;;;27.75;;
25111;SDS011;13092;51.996;4.458;2022-11-15T17:48:56;30.48;;;27.95;;
25111;SDS011;13092;51.996;4.458;2022-11-15T17:51:24;30.67;;;28.27;;
25111;SDS011;13092;51.996;4.458;2022-11-15T17:53:53;31.08;;;28.67;;
25111;SDS011;13092;51.996;4.458;2022-11-15T17:56:25;31.02;;;28.63;;
25111;SDS011;13092;51.996;4.458;2022-11-15T17:58:56;30.50;;;28.10;;
25111;SDS011;13092;51.996;4.458;2022-11-15T18:01:26;30.27;;;27.88;;
25111;SDS011;13092;51.996;4.458;2022-11-15T18:03:57;30.58;;;28.13;;
25111;SDS011;13092;51.996;4.458;2022-11-15T18:06:27;31.13;;;28.67;;
25111;SDS011;13092;51.996;4.458;2022-11-15T18:08:57;31.80;;;29.30;;
25111;SDS011;13092;51.996;4.458;2022-11-15T18:11:26;30.33;;;28.13;;
25111;SDS011;13092;51.996;4.458;2022-11-15T18:13:56;31.67;;;29.08;;
25111;SDS011;13092;51.996;4.458;2022-11-15T18:28:14;31.48;;;28.98;;
25111;SDS011;13092;51.996;4.458;2022-11-15T18:30:42;31.63;;;29.02;;
25111;SDS011;13092;51.996;4.458;2022-11-15T18:33:10;31.58;;;28.98;;
25111;SDS011;13092;51.996;4.458;2022-11-15T18:35:38;31.38;;;28.88;;
25111;SDS011;13092;51.996;4.458;2022-11-15T18:38:06;31.13;;;28.73;;
25111;SDS011;13092;51.996;4.458;2022-11-15T18:40:34;31.38;;;28.88;;
25111;SDS011;13092;51.996;4.458;2022-11-15T18:43:02;31.23;;;28.75;;
25111;SDS011;13092;51.996;4.458;2022-11-15T18:45:33;31.83;;;29.25;;
25111;SDS011;13092;51.996;4.458;2022-11-15T18:48:02;31.52;;;28.95;;
25111;SDS011;13092;51.996;4.458;2022-11-15T18:50:30;31.13;;;28.70;;
25111;SDS011;13092;51.996;4.458;2022-11-15T18:52:58;31.40;;;28.90;;
25111;SDS011;13092;51.996;4.458;2022-11-15T18:55:26;32.47;;;29.88;;
25111;SDS011;13092;51.996;4.458;2022-11-15T18:57:55;30.67;;;28.27;;
25111;SDS011;13092;51.996;4.458;2022-11-15T19:00:23;30.98;;;28.27;;
25111;SDS011;13092;51.996;4.458;2022-11-15T19:02:53;31.13;;;28.58;;
25111;SDS011;13092;51.996;4.458;2022-11-15T19:05:21;31.75;;;29.17;;
25111;SDS011;13092;51.996;4.458;2022-11-15T19:07:50;31.00;;;28.70;;
25111;SDS011;13092;51.996;4.458;2022-11-15T19:10:18;30.73;;;28.33;;